createdAt,value
2023-05-01T00:02:27.763Z,94995.59
2023-05-01T00:04:55.337Z,94988.75
2023-05-01T00:07:22.855Z,94989.56
2023-05-01T00:09:50.305Z,94990.38
2023-05-01T00:12:17.893Z,94984.34
2023-05-01T00:14:45.349Z,94982.53
2023-05-01T00:17:12.888Z,94977.28
2023-05-01T00:19:41.877Z,94977.28
2023-05-01T00:22:09.319Z,94973.88
2023-05-01T00:24:36.764Z,94967.66
2023-05-01T00:27:04.279Z,94972.91
2023-05-01T00:29:31.722Z,94971.09
2023-05-01T00:31:59.195Z,94972.91
2023-05-01T00:34:26.747Z,94965.06
2023-05-01T00:36:55.523Z,94959.81
2023-05-01T00:39:23.020Z,94963.44
2023-05-01T00:41:50.464Z,94972.91
2023-05-01T00:44:17.930Z,94960.81
2023-05-01T00:46:45.396Z,94962.44
2023-05-01T00:49:13.478Z,94962.59
2023-05-01T00:51:41.616Z,94960.00
2023-05-01T00:54:10.449Z,94958.22
2023-05-01T00:56:38.577Z,94954.78
2023-05-01T00:59:06.036Z,94947.88
2023-05-01T01:01:34.776Z,94955.59
2023-05-01T01:04:02.310Z,94945.28
2023-05-01T01:06:32.279Z,94955.59
2023-05-01T01:09:07.970Z,94948.72
2023-05-01T01:11:39.415Z,94943.50
2023-05-01T01:14:09.516Z,94943.50
2023-05-01T01:16:40.738Z,94937.44
2023-05-01T01:19:19.449Z,94937.44
2023-05-01T01:21:50.803Z,94931.41
2023-05-01T01:24:33.933Z,94936.66
2023-05-01T01:27:11.580Z,94936.66
2023-05-01T01:29:41.642Z,94931.41
2023-05-01T01:32:12.720Z,94926.19
2023-05-01T01:34:45.160Z,94923.56
2023-05-01T01:37:15.953Z,94923.56
2023-05-01T01:39:46.906Z,94926.19
2023-05-01T01:42:16.863Z,94922.59
2023-05-01T01:44:53.116Z,94920.97
2023-05-01T01:47:21.695Z,94919.16
2023-05-01T01:49:53.018Z,94911.31
2023-05-01T01:52:21.677Z,94907.91
2023-05-01T01:54:51.298Z,94916.53
2023-05-01T01:57:20.393Z,94910.34
2023-05-01T01:59:49.544Z,94906.91
2023-05-01T02:02:18.346Z,94911.31
2023-05-01T02:04:46.727Z,94907.91
2023-05-01T02:07:15.931Z,94901.69
2023-05-01T02:09:45.655Z,94901.69
2023-05-01T02:12:13.798Z,94905.28
2023-05-01T02:14:42.212Z,94902.69
2023-05-01T02:17:10.449Z,94909.53
2023-05-01T02:19:40.209Z,94901.69
2023-05-01T02:22:08.178Z,94907.72
2023-05-01T02:24:38.196Z,94901.69
2023-05-01T02:27:16.659Z,94894.84
2023-05-01T02:29:44.362Z,94891.22
2023-05-01T02:32:12.326Z,94887.78
2023-05-01T02:34:39.779Z,94887.00
2023-05-01T02:37:07.884Z,94868.84
2023-05-01T02:39:36.728Z,94869.50
2023-05-01T02:42:04.468Z,94868.69
2023-05-01T02:44:33.839Z,94868.69
2023-05-01T02:47:01.873Z,94866.09
2023-05-01T02:49:31.054Z,94868.84
2023-05-01T02:51:59.782Z,94874.06
2023-05-01T02:54:27.436Z,94866.09
2023-05-01T02:56:58.225Z,94870.63
2023-05-01T02:59:25.700Z,94873.09
2023-05-01T03:01:53.166Z,94871.44
2023-05-01T03:04:20.670Z,94871.44
2023-05-01T03:06:48.364Z,94867.22
2023-05-01T03:09:16.258Z,94868.84
2023-05-01T03:11:43.738Z,94869.66
2023-05-01T03:14:12.791Z,94868.84
2023-05-01T03:16:40.527Z,94871.44
2023-05-01T03:19:08.060Z,94863.47
2023-05-01T03:21:35.466Z,94852.34
2023-05-01T03:24:03.283Z,94855.78
2023-05-01T03:26:30.696Z,94850.56
2023-05-01T03:28:58.430Z,94858.25
2023-05-01T03:31:27.265Z,94844.34
2023-05-01T03:33:54.709Z,94853.03
2023-05-01T03:36:22.934Z,94852.19
2023-05-01T03:38:50.382Z,94859.03
2023-05-01T03:41:18.026Z,94855.63
2023-05-01T03:43:45.519Z,94852.03
2023-05-01T03:46:12.989Z,94859.88
2023-05-01T03:48:41.968Z,94852.03
2023-05-01T03:51:09.414Z,94846.81
2023-05-01T03:53:37.294Z,94851.06
2023-05-01T03:56:05.468Z,94840.59
2023-05-01T03:58:33.023Z,94845.97
2023-05-01T04:01:00.930Z,94838.97
2023-05-01T04:03:28.697Z,94836.34
2023-05-01T04:05:57.982Z,94833.75
2023-05-01T04:08:25.516Z,94832.91
2023-05-01T04:10:52.951Z,94845.84
2023-05-01T04:13:20.439Z,94848.44
2023-05-01T04:15:47.970Z,94843.22
2023-05-01T04:18:15.875Z,94835.53
2023-05-01T04:20:43.330Z,94841.56
2023-05-01T04:23:12.730Z,94832.91
2023-05-01T04:25:40.215Z,94833.75
2023-05-01T04:28:07.659Z,94831.13
2023-05-01T04:30:35.386Z,94834.56
2023-05-01T04:33:03.924Z,94838.00
2023-05-01T04:35:31.442Z,94825.91
2023-05-01T04:37:58.872Z,94826.72
2023-05-01T04:40:27.658Z,94829.34
2023-05-01T04:42:55.146Z,94834.56
2023-05-01T04:45:22.617Z,94826.72
2023-05-01T04:47:50.103Z,94823.94
2023-05-01T04:50:17.565Z,94819.72
2023-05-01T04:52:45.023Z,94829.16
2023-05-01T04:55:12.516Z,94837.81
2023-05-01T04:57:41.279Z,94830.00
2023-05-01T05:00:09.209Z,94834.22
2023-05-01T05:02:37.143Z,94834.22
2023-05-01T05:05:04.697Z,94835.88
2023-05-01T05:07:32.158Z,94845.50
2023-05-01T05:09:59.557Z,94839.31
2023-05-01T05:12:27.030Z,94841.75
2023-05-01T05:14:55.871Z,94840.94
2023-05-01T05:17:23.295Z,94838.31
2023-05-01T05:19:50.744Z,94845.19
2023-05-01T05:22:18.167Z,94847.81
2023-05-01T05:24:47.048Z,94846.16
2023-05-01T05:27:14.461Z,94839.97
2023-05-01T05:29:41.915Z,94858.25
2023-05-01T05:32:11.530Z,94856.47
2023-05-01T05:34:39.181Z,94857.44
2023-05-01T05:37:06.614Z,94853.19
2023-05-01T05:39:34.065Z,94858.44
2023-05-01T05:42:01.508Z,94854.81
2023-05-01T05:44:28.905Z,94846.97
2023-05-01T05:46:56.320Z,94856.47
2023-05-01T05:49:25.148Z,94854.00
2023-05-01T05:51:52.660Z,94858.44
2023-05-01T05:54:20.106Z,94862.81
2023-05-01T05:56:47.547Z,94857.59
2023-05-01T05:59:17.292Z,94859.22
2023-05-01T06:01:45.017Z,94863.66
2023-05-01T06:04:14.082Z,94859.22
2023-05-01T06:06:43.093Z,94858.44
2023-05-01T06:09:12.734Z,94844.53
2023-05-01T06:11:40.188Z,94861.84
2023-05-01T06:14:07.637Z,94857.44
2023-05-01T06:16:35.335Z,94856.59
2023-05-01T06:19:02.842Z,94858.44
2023-05-01T06:21:32.111Z,94857.59
2023-05-01T06:24:00.912Z,94847.97
2023-05-01T06:26:28.429Z,94862.81
2023-05-01T06:28:56.237Z,94853.19
2023-05-01T06:31:23.735Z,94853.34
2023-05-01T06:33:51.224Z,94858.56
2023-05-01T06:36:18.673Z,94855.00
2023-05-01T06:38:48.797Z,94859.22
2023-05-01T06:41:17.868Z,94865.28
2023-05-01T06:43:45.308Z,94847.81
2023-05-01T06:46:12.954Z,94864.44
2023-05-01T06:48:40.439Z,94866.09
2023-05-01T06:51:07.901Z,94855.63
2023-05-01T06:53:36.730Z,94859.88
2023-05-01T06:56:04.268Z,94860.69
2023-05-01T06:58:33.059Z,94862.50
2023-05-01T07:01:00.613Z,94863.31
2023-05-01T07:03:28.522Z,94860.69
2023-05-01T07:05:55.995Z,94865.94
2023-05-01T07:08:24.239Z,94863.31
2023-05-01T07:10:51.653Z,94870.19
2023-05-01T07:13:19.531Z,94865.09
2023-05-01T07:15:48.770Z,94868.53
2023-05-01T07:18:17.091Z,94864.13
2023-05-01T07:20:44.808Z,94861.69
2023-05-01T07:23:12.253Z,94861.53
2023-05-01T07:25:44.207Z,94861.53
2023-05-01T07:28:11.757Z,94864.97
2023-05-01T07:30:39.578Z,94869.38
2023-05-01T07:33:08.509Z,94869.38
2023-05-01T07:35:36.209Z,94863.66
2023-05-01T07:38:04.377Z,94861.53
2023-05-01T07:40:33.932Z,94867.22
2023-05-01T07:43:01.600Z,94869.97
2023-05-01T07:45:29.105Z,94877.31
2023-05-01T07:47:57.070Z,94879.09
2023-05-01T07:50:26.386Z,94879.63
2023-05-01T07:52:53.829Z,94872.09
2023-05-01T07:55:22.640Z,94879.81
2023-05-01T07:57:50.621Z,94874.25
2023-05-01T08:00:18.838Z,94870.81
2023-05-01T08:02:46.485Z,94875.25
2023-05-01T08:05:14.381Z,94879.16
2023-05-01T08:07:43.170Z,94877.69
2023-05-01T08:10:10.904Z,94879.63
2023-05-01T08:12:38.464Z,94883.38
2023-05-01T08:15:06.428Z,94891.22
2023-05-01T08:17:34.255Z,94890.56
2023-05-01T08:20:01.827Z,94892.50
2023-05-01T08:22:29.264Z,94895.25
2023-05-01T08:24:58.247Z,94903.28
2023-05-01T08:27:25.680Z,94901.63
2023-05-01T08:29:53.190Z,94894.94
2023-05-01T08:32:21.445Z,94890.84
2023-05-01T08:34:48.887Z,94901.13
2023-05-01T08:37:18.860Z,94907.19
2023-05-01T08:39:46.328Z,94901.94
2023-05-01T08:42:15.261Z,94909.63
2023-05-01T08:44:43.082Z,94907.19
2023-05-01T08:47:12.702Z,94909.13
2023-05-01T08:49:41.635Z,94909.94
2023-05-01T08:52:09.702Z,94918.59
2023-05-01T08:54:38.972Z,94918.59
2023-05-01T08:57:09.727Z,94924.81
2023-05-01T08:59:39.923Z,94924.81
2023-05-01T09:02:08.420Z,94922.31
2023-05-01T09:04:37.048Z,94925.94
2023-05-01T09:07:04.929Z,94925.09
2023-05-01T09:09:33.316Z,94925.09
2023-05-01T09:12:02.988Z,94929.66
2023-05-01T09:14:31.770Z,94930.63
2023-05-01T09:17:00.650Z,94932.28
2023-05-01T09:19:28.220Z,94932.44
2023-05-01T09:21:55.891Z,94934.22
2023-05-01T09:24:24.893Z,94938.63
2023-05-01T09:26:52.576Z,94933.41
2023-05-01T09:29:39.182Z,94937.00
2023-05-01T09:32:18.106Z,94935.19
2023-05-01T09:34:45.638Z,94944.97
2023-05-01T09:37:14.962Z,94940.75
2023-05-01T09:39:42.407Z,94944.97
2023-05-01T09:42:10.113Z,94943.19
2023-05-01T09:44:45.243Z,94943.19
2023-05-01T09:47:13.873Z,94941.41
2023-05-01T09:49:51.769Z,94946.63
2023-05-01T09:52:19.268Z,94951.03
2023-05-01T09:54:46.862Z,94948.72
2023-05-01T09:57:14.409Z,94956.56
2023-05-01T09:59:41.848Z,94947.09
2023-05-01T10:02:18.709Z,94953.16
2023-05-01T10:04:46.273Z,94951.19
2023-05-01T10:07:15.418Z,94946.13
2023-05-01T10:09:42.918Z,94945.31
2023-05-01T10:12:10.381Z,94947.09
2023-05-01T10:14:50.253Z,94948.88
2023-05-01T10:17:20.925Z,94945.63
2023-05-01T10:19:48.712Z,94947.41
2023-05-01T10:22:17.619Z,94948.22
2023-05-01T10:24:46.093Z,94953.28
2023-05-01T10:27:14.092Z,94951.50
2023-05-01T10:29:41.857Z,94946.28
2023-05-01T10:32:10.364Z,94950.53
2023-05-01T10:34:39.553Z,94947.94
2023-05-01T10:37:10.694Z,94944.16
2023-05-01T10:39:39.830Z,94937.69
2023-05-01T10:42:10.978Z,94937.34
2023-05-01T10:44:38.676Z,94938.81
2023-05-01T10:47:31.369Z,94939.34
2023-05-01T10:50:06.989Z,94933.13
2023-05-01T10:52:49.319Z,94926.78
2023-05-01T10:55:37.276Z,94934.63
2023-05-01T10:58:04.870Z,94930.88
2023-05-01T11:00:34.287Z,94922.03
2023-05-01T11:03:20.392Z,94922.88
2023-05-01T11:06:06.378Z,94927.13
2023-05-01T11:08:34.843Z,94915.84
2023-05-01T11:11:23.097Z,94920.91
2023-05-01T11:13:57.626Z,94920.09
2023-05-01T11:16:49.776Z,94915.69
2023-05-01T11:19:35.958Z,94907.84
2023-05-01T11:22:03.472Z,94911.28
2023-05-01T11:24:33.795Z,94915.56
2023-05-01T11:27:01.698Z,94914.56
2023-05-01T11:29:33.716Z,94916.22
2023-05-01T11:32:01.589Z,94905.75
2023-05-01T11:34:29.229Z,94904.75
2023-05-01T11:36:56.630Z,94901.31
2023-05-01T11:39:24.141Z,94908.22
2023-05-01T11:41:51.579Z,94900.19
2023-05-01T11:44:19.462Z,94904.59
2023-05-01T11:46:57.850Z,94907.06
2023-05-01T11:49:27.881Z,94900.84
2023-05-01T11:51:57.415Z,94902.69
2023-05-01T11:54:25.096Z,94906.91
2023-05-01T11:56:59.011Z,94906.75
2023-05-01T11:59:26.841Z,94905.78
2023-05-01T12:01:55.754Z,94908.38
2023-05-01T12:04:24.808Z,94909.22
2023-05-01T12:06:52.563Z,94908.38
2023-05-01T12:09:21.067Z,94903.97
2023-05-01T12:11:52.275Z,94910.84
2023-05-01T12:14:20.499Z,94909.88
2023-05-01T12:16:48.289Z,94914.28
2023-05-01T12:19:17.478Z,94907.25
2023-05-01T12:21:45.042Z,94910.00
2023-05-01T12:24:12.986Z,94915.91
2023-05-01T12:26:40.624Z,94903.66
2023-05-01T12:29:08.950Z,94905.47
2023-05-01T12:31:37.438Z,94907.25
2023-05-01T12:34:06.081Z,94910.69
2023-05-01T12:36:36.111Z,94900.25
2023-05-01T12:39:05.111Z,94904.63
2023-05-01T12:41:37.778Z,94912.31
2023-05-01T12:44:16.757Z,94907.09
2023-05-01T12:46:44.364Z,94905.31
2023-05-01T12:49:16.775Z,94909.69
2023-05-01T12:51:48.349Z,94912.31
2023-05-01T12:54:19.664Z,94911.50
2023-05-01T12:56:47.472Z,94910.53
2023-05-01T12:59:21.811Z,94915.75
2023-05-01T13:01:49.291Z,94918.38
2023-05-01T13:04:21.697Z,94926.03
2023-05-01T13:06:50.651Z,94910.34
2023-05-01T13:09:18.176Z,94912.16
2023-05-01T13:11:57.017Z,94905.97
2023-05-01T13:14:24.557Z,94912.00
2023-05-01T13:16:52.561Z,94906.78
2023-05-01T13:19:28.222Z,94905.00
2023-05-01T13:21:57.949Z,94899.75
2023-05-01T13:24:25.955Z,94891.91
2023-05-01T13:27:04.863Z,94898.78
2023-05-01T13:29:33.341Z,94898.78
2023-05-01T13:32:00.994Z,94896.16
2023-05-01T13:34:30.905Z,94903.16
2023-05-01T13:37:00.463Z,94906.59
2023-05-01T13:39:27.907Z,94908.25
2023-05-01T13:41:55.830Z,94904.00
2023-05-01T13:44:23.471Z,94901.38
2023-05-01T13:46:51.133Z,94906.59
2023-05-01T13:49:21.629Z,94907.44
2023-05-01T13:51:49.111Z,94898.78
2023-05-01T13:54:18.053Z,94904.81
2023-05-01T13:56:46.514Z,94893.72
2023-05-01T13:59:13.962Z,94898.78
2023-05-01T14:01:45.949Z,94898.78
2023-05-01T14:04:16.831Z,94899.59
2023-05-01T14:06:45.016Z,94888.16
2023-05-01T14:09:12.527Z,94889.13
2023-05-01T14:11:46.577Z,94888.31
2023-05-01T14:14:15.994Z,94877.84
2023-05-01T14:16:45.421Z,94888.31
2023-05-01T14:19:15.510Z,94887.34
2023-05-01T14:21:43.378Z,94893.53
2023-05-01T14:24:11.351Z,94899.59
2023-05-01T14:26:40.675Z,94889.13
2023-05-01T14:29:14.087Z,94888.31
2023-05-01T14:31:41.593Z,94900.41
2023-05-01T14:34:09.085Z,94886.34
2023-05-01T14:36:36.523Z,94892.41
2023-05-01T14:39:05.454Z,94896.81
2023-05-01T14:41:34.676Z,94899.44
2023-05-01T14:44:03.672Z,94899.25
2023-05-01T14:46:33.309Z,94897.63
2023-05-01T14:49:01.506Z,94898.47
2023-05-01T14:51:31.246Z,94891.41
2023-05-01T14:53:58.737Z,94891.41
2023-05-01T14:56:26.159Z,94892.25
2023-05-01T14:58:53.634Z,94905.31
2023-05-01T15:01:21.742Z,94904.34
2023-05-01T15:03:50.825Z,94895.69
2023-05-01T15:06:18.396Z,94910.41
2023-05-01T15:08:46.455Z,94896.88
2023-05-01T15:11:14.436Z,94908.81
2023-05-01T15:13:42.672Z,94909.47
2023-05-01T15:16:10.974Z,94911.09
2023-05-01T15:18:38.646Z,94907.00
2023-05-01T15:21:07.548Z,94914.53
2023-05-01T15:23:36.896Z,94914.66
2023-05-01T15:26:04.529Z,94918.44
2023-05-01T15:28:32.572Z,94920.41
2023-05-01T15:31:00.141Z,94924.00
2023-05-01T15:33:27.780Z,94921.53
2023-05-01T15:35:55.283Z,94926.78
2023-05-01T15:38:25.104Z,94923.47
2023-05-01T15:40:52.537Z,94926.09
2023-05-01T15:43:21.140Z,94933.09
2023-05-01T15:45:48.666Z,94932.09
2023-05-01T15:48:16.209Z,94930.47
2023-05-01T15:50:43.701Z,94927.69
2023-05-01T15:53:11.130Z,94932.94
2023-05-01T15:55:39.924Z,94933.63
2023-05-01T15:58:07.638Z,94942.28
2023-05-01T16:00:35.922Z,94938.72
2023-05-01T16:03:04.472Z,94934.28
2023-05-01T16:05:32.631Z,94939.38
2023-05-01T16:08:00.958Z,94939.19
2023-05-01T16:10:28.420Z,94936.41
2023-05-01T16:12:57.238Z,94938.06
2023-05-01T16:15:24.640Z,94934.31
2023-05-01T16:17:54.243Z,94939.38
2023-05-01T16:20:21.930Z,94938.38
2023-05-01T16:22:49.381Z,94938.25
2023-05-01T16:25:17.087Z,94932.84
2023-05-01T16:27:46.134Z,94942.34
2023-05-01T16:30:15.368Z,94942.16
2023-05-01T16:32:43.431Z,94941.19
2023-05-01T16:35:11.503Z,94944.63
2023-05-01T16:37:39.482Z,94944.47
2023-05-01T16:40:07.926Z,94945.25
2023-05-01T16:42:36.313Z,94946.91
2023-05-01T16:45:04.514Z,94935.47
2023-05-01T16:47:34.419Z,94940.69
2023-05-01T16:50:02.396Z,94947.41
2023-05-01T16:52:30.067Z,94949.22
2023-05-01T16:54:59.359Z,94943.31
2023-05-01T16:57:26.841Z,94948.53
2023-05-01T16:59:54.328Z,94946.09
2023-05-01T17:02:21.801Z,94948.88
2023-05-01T17:04:50.668Z,94951.31
2023-05-01T17:07:18.129Z,94961.13
2023-05-01T17:09:45.553Z,94963.09
2023-05-01T17:12:13.013Z,94957.03
2023-05-01T17:14:40.432Z,94963.25
2023-05-01T17:17:09.512Z,94971.09
2023-05-01T17:19:38.900Z,94967.34
2023-05-01T17:22:08.067Z,94966.66
2023-05-01T17:24:36.128Z,94977.94
2023-05-01T17:27:03.789Z,94973.06
2023-05-01T17:29:31.297Z,94974.03
2023-05-01T17:31:58.762Z,94971.41
2023-05-01T17:34:26.253Z,94972.53
2023-05-01T17:36:55.882Z,94977.78
2023-05-01T17:39:27.487Z,94975.03
2023-05-01T17:41:55.471Z,94978.59
2023-05-01T17:44:22.925Z,94979.75
2023-05-01T17:46:50.394Z,94986.78
2023-05-01T17:49:17.911Z,94988.56
2023-05-01T17:51:46.122Z,94989.53
2023-05-01T17:54:16.517Z,94991.34
2023-05-01T17:56:45.632Z,94992.31
2023-05-01T17:59:13.551Z,94993.16
2023-05-01T18:01:41.216Z,94997.56
2023-05-01T18:04:09.067Z,94994.28
2023-05-01T18:06:36.735Z,94993.28
2023-05-01T18:09:04.581Z,94995.09
2023-05-01T18:11:32.020Z,95001.97
2023-05-01T18:14:01.605Z,95006.38
2023-05-01T18:16:29.103Z,95012.59
2023-05-01T18:18:58.073Z,95009.16
2023-05-01T18:21:27.203Z,95019.59
2023-05-01T18:23:54.644Z,95018.63
2023-05-01T18:26:22.235Z,95025.66
2023-05-01T18:28:49.690Z,95019.59
2023-05-01T18:31:18.589Z,95030.88
2023-05-01T18:33:46.060Z,95032.69
2023-05-01T18:36:13.470Z,95031.84
2023-05-01T18:38:40.924Z,95037.91
2023-05-01T18:41:08.361Z,95037.06
2023-05-01T18:43:36.072Z,95037.25
2023-05-01T18:46:03.526Z,95039.84
2023-05-01T18:48:32.350Z,95036.41
2023-05-01T18:51:08.573Z,95040.84
2023-05-01T18:53:36.693Z,95046.88
2023-05-01T18:56:04.266Z,95053.75
2023-05-01T18:58:31.709Z,95054.72
2023-05-01T19:00:59.142Z,95069.44
2023-05-01T19:03:26.658Z,95068.63
2023-05-01T19:05:55.442Z,95069.63
2023-05-01T19:08:22.909Z,95069.63
2023-05-01T19:10:50.370Z,95075.63
2023-05-01T19:13:17.972Z,95078.25
2023-05-01T19:15:46.315Z,95079.06
2023-05-01T19:18:14.578Z,95079.06
2023-05-01T19:20:42.008Z,95073.84
2023-05-01T19:23:10.767Z,95074.69
2023-05-01T19:25:38.581Z,95073.69
2023-05-01T19:28:06.111Z,95084.13
2023-05-01T19:30:33.569Z,95072.88
2023-05-01T19:33:01.122Z,95071.06
2023-05-01T19:35:28.653Z,95077.94
2023-05-01T19:37:56.485Z,95077.13
2023-05-01T19:40:25.288Z,95080.41
2023-05-01T19:42:52.779Z,95081.41
2023-05-01T19:45:20.335Z,95076.00
2023-05-01T19:47:47.975Z,95080.56
2023-05-01T19:50:17.480Z,95085.63
2023-05-01T19:52:44.952Z,95089.22
2023-05-01T19:55:12.999Z,95083.19
2023-05-01T19:57:41.813Z,95097.75
2023-05-01T20:00:11.673Z,95085.63
2023-05-01T20:02:39.452Z,95090.03
2023-05-01T20:05:07.144Z,95090.84
2023-05-01T20:07:34.949Z,95096.25
2023-05-01T20:10:02.550Z,95107.53
2023-05-01T20:12:30.441Z,95106.72
2023-05-01T20:15:00.503Z,95113.56
2023-05-01T20:17:28.089Z,95110.16
2023-05-01T20:19:55.900Z,95111.94
2023-05-01T20:22:23.529Z,95114.56
2023-05-01T20:24:51.132Z,95113.72
2023-05-01T20:27:18.598Z,95124.19
2023-05-01T20:29:46.048Z,95125.00
2023-05-01T20:32:14.866Z,95124.84
2023-05-01T20:34:42.472Z,95126.81
2023-05-01T20:37:09.910Z,95126.81
2023-05-01T20:39:37.319Z,95125.19
2023-05-01T20:42:05.299Z,95128.59
2023-05-01T20:44:32.916Z,95125.19
2023-05-01T20:47:00.412Z,95116.50
2023-05-01T20:49:29.416Z,95131.19
2023-05-01T20:51:58.470Z,95137.44
2023-05-01T20:54:26.005Z,95131.19
2023-05-01T20:56:54.169Z,95130.41
2023-05-01T20:59:21.705Z,95137.44
2023-05-01T21:01:49.506Z,95135.63
2023-05-01T21:04:17.536Z,95132.19
2023-05-01T21:06:46.519Z,95130.41
2023-05-01T21:09:15.045Z,95135.47
2023-05-01T21:11:42.546Z,95138.25
2023-05-01T21:14:10.041Z,95138.25
2023-05-01T21:16:38.822Z,95140.88
2023-05-01T21:19:06.843Z,95146.09
2023-05-01T21:21:36.058Z,95147.72
2023-05-01T21:24:05.353Z,95156.38
2023-05-01T21:26:32.977Z,95147.72
2023-05-01T21:29:00.577Z,95148.56
2023-05-01T21:31:29.822Z,95147.72
2023-05-01T21:33:59.024Z,95151.16
2023-05-01T21:36:26.498Z,95145.94
2023-05-01T21:38:53.979Z,95148.56
2023-05-01T21:41:22.838Z,95147.72
2023-05-01T21:43:50.312Z,95152.94
2023-05-01T21:46:19.154Z,95157.34
2023-05-01T21:48:47.617Z,95156.38
2023-05-01T21:51:15.010Z,95159.97
2023-05-01T21:53:43.004Z,95158.19
2023-05-01T21:56:11.034Z,95159.97
2023-05-01T21:58:40.204Z,95166.19
2023-05-01T22:01:09.358Z,95167.00
2023-05-01T22:03:40.488Z,95161.78
2023-05-01T22:06:08.022Z,95168.81
2023-05-01T22:08:35.491Z,95167.81
2023-05-01T22:11:04.389Z,95168.81
2023-05-01T22:13:34.286Z,95167.00
2023-05-01T22:16:03.840Z,95163.56
2023-05-01T22:18:31.435Z,95171.41
2023-05-01T22:21:00.088Z,95168.81
2023-05-01T22:23:27.631Z,95164.41
2023-05-01T22:25:59.926Z,95164.41
2023-05-01T22:28:27.656Z,95167.00
2023-05-01T22:30:55.168Z,95166.19
2023-05-01T22:33:23.973Z,95171.41
2023-05-01T22:35:51.395Z,95170.59
2023-05-01T22:38:18.822Z,95172.38
2023-05-01T22:40:46.462Z,95179.25
2023-05-01T22:43:13.902Z,95186.28
2023-05-01T22:45:42.770Z,95181.88
2023-05-01T22:48:10.624Z,95181.88
2023-05-01T22:50:39.551Z,95189.72
2023-05-01T22:53:07.234Z,95181.88
2023-05-01T22:55:34.722Z,95184.50
2023-05-01T22:58:02.283Z,95194.78
2023-05-01T23:00:29.823Z,95191.34
2023-05-01T23:02:57.435Z,95190.38
2023-05-01T23:05:24.960Z,95197.41
2023-05-01T23:07:53.760Z,95190.38
2023-05-01T23:10:28.004Z,95190.38
2023-05-01T23:12:55.566Z,95185.16
2023-05-01T23:15:23.875Z,95192.00
2023-05-01T23:17:51.402Z,95189.56
2023-05-01T23:20:21.153Z,95185.16
2023-05-01T23:22:49.049Z,95187.78
2023-05-01T23:25:18.578Z,95180.88
2023-05-01T23:27:49.794Z,95178.28
2023-05-01T23:30:20.857Z,95179.09
2023-05-01T23:32:48.658Z,95178.28
2023-05-01T23:35:18.965Z,95176.66
2023-05-01T23:37:46.428Z,95181.03
2023-05-01T23:40:13.900Z,95175.00
2023-05-01T23:42:42.666Z,95182.84
2023-05-01T23:45:10.394Z,95186.28
2023-05-01T23:47:38.745Z,95189.72
2023-05-01T23:50:06.872Z,95184.66
2023-05-01T23:52:34.382Z,95182.84
2023-05-01T23:55:01.838Z,95183.66
2023-05-01T23:57:29.458Z,95186.28
2023-05-01T23:59:58.468Z,95183.81
